sensor_id;sensor_type;location;lat;lon;timestamp;P1;durP1;ratioP1;P2;durP2;ratioP2
5900;SDS011;2976;49.764;9.796;2022-09-13T00:00:03;15.20;;;10.33;;
5900;SDS011;2976;49.764;9.796;2022-09-13T00:02:30;11.20;;;9.60;;
5900;SDS011;2976;49.764;9.796;2022-09-13T00:04:56;10.87;;;9.23;;
5900;SDS011;2976;49.764;9.796;2022-09-13T00:07:21;11.27;;;8.90;;
5900;SDS011;2976;49.764;9.796;2022-09-13T00:09:47;12.13;;;8.73;;
5900;SDS011;2976;49.764;9.796;2022-09-13T00:12:12;10.10;;;8.80;;
5900;SDS011;2976;49.764;9.796;2022-09-13T00:14:39;14.50;;;9.57;;
5900;SDS011;2976;49.764;9.796;2022-09-13T00:17:05;10.57;;;8.77;;
5900;SDS011;2976;49.764;9.796;2022-09-13T00:19:30;11.60;;;9.40;;
5900;SDS011;2976;49.764;9.796;2022-09-13T00:21:56;11.90;;;8.80;;
5900;SDS011;2976;49.764;9.796;2022-09-13T00:24:21;10.60;;;7.93;;
5900;SDS011;2976;49.764;9.796;2022-09-13T00:26:47;10.90;;;7.93;;
5900;SDS011;2976;49.764;9.796;2022-09-13T00:29:12;8.63;;;7.57;;
5900;SDS011;2976;49.764;9.796;2022-09-13T00:31:38;11.17;;;8.60;;
5900;SDS011;2976;49.764;9.796;2022-09-13T00:34:03;13.40;;;7.53;;
5900;SDS011;2976;49.764;9.796;2022-09-13T00:36:29;8.50;;;7.60;;
5900;SDS011;2976;49.764;9.796;2022-09-13T00:38:54;10.00;;;8.10;;
5900;SDS011;2976;49.764;9.796;2022-09-13T00:41:20;9.97;;;8.00;;
5900;SDS011;2976;49.764;9.796;2022-09-13T00:43:48;11.30;;;9.60;;
5900;SDS011;2976;49.764;9.796;2022-09-13T00:46:16;11.20;;;8.33;;
5900;SDS011;2976;49.764;9.796;2022-09-13T00:48:52;9.43;;;8.03;;
5900;SDS011;2976;49.764;9.796;2022-09-13T00:51:23;10.67;;;7.97;;
5900;SDS011;2976;49.764;9.796;2022-09-13T00:53:50;11.30;;;8.80;;
5900;SDS011;2976;49.764;9.796;2022-09-13T00:56:21;12.63;;;8.90;;
5900;SDS011;2976;49.764;9.796;2022-09-13T00:59:02;13.07;;;9.03;;
5900;SDS011;2976;49.764;9.796;2022-09-13T01:01:36;16.40;;;10.10;;
5900;SDS011;2976;49.764;9.796;2022-09-13T01:04:07;11.37;;;9.13;;
5900;SDS011;2976;49.764;9.796;2022-09-13T01:06:34;15.00;;;9.57;;
5900;SDS011;2976;49.764;9.796;2022-09-13T01:09:02;13.83;;;10.57;;
5900;SDS011;2976;49.764;9.796;2022-09-13T01:11:38;12.13;;;9.57;;
5900;SDS011;2976;49.764;9.796;2022-09-13T01:14:14;15.93;;;10.87;;
5900;SDS011;2976;49.764;9.796;2022-09-13T01:16:42;13.53;;;10.20;;
5900;SDS011;2976;49.764;9.796;2022-09-13T01:19:08;14.73;;;10.37;;
5900;SDS011;2976;49.764;9.796;2022-09-13T01:24:53;16.50;;;10.60;;
5900;SDS011;2976;49.764;9.796;2022-09-13T01:30:36;16.73;;;10.30;;
5900;SDS011;2976;49.764;9.796;2022-09-13T01:38:57;16.63;;;11.30;;
5900;SDS011;2976;49.764;9.796;2022-09-13T01:55:10;14.00;;;10.47;;
5900;SDS011;2976;49.764;9.796;2022-09-13T02:00:46;18.10;;;10.00;;
5900;SDS011;2976;49.764;9.796;2022-09-13T02:03:53;12.67;;;9.43;;
5900;SDS011;2976;49.764;9.796;2022-09-13T02:06:32;16.13;;;10.30;;
5900;SDS011;2976;49.764;9.796;2022-09-13T02:09:10;10.63;;;9.23;;
5900;SDS011;2976;49.764;9.796;2022-09-13T02:11:40;14.93;;;10.13;;
5900;SDS011;2976;49.764;9.796;2022-09-13T02:14:10;15.27;;;11.50;;
5900;SDS011;2976;49.764;9.796;2022-09-13T02:16:43;13.43;;;9.97;;
5900;SDS011;2976;49.764;9.796;2022-09-13T02:19:20;16.33;;;9.60;;
5900;SDS011;2976;49.764;9.796;2022-09-13T02:21:51;12.87;;;9.53;;
5900;SDS011;2976;49.764;9.796;2022-09-13T02:24:22;12.50;;;9.73;;
5900;SDS011;2976;49.764;9.796;2022-09-13T02:26:51;18.10;;;10.20;;
5900;SDS011;2976;49.764;9.796;2022-09-13T02:29:20;16.53;;;10.90;;
5900;SDS011;2976;49.764;9.796;2022-09-13T02:31:50;15.20;;;10.80;;
5900;SDS011;2976;49.764;9.796;2022-09-13T02:34:27;11.83;;;8.93;;
5900;SDS011;2976;49.764;9.796;2022-09-13T02:36:57;13.77;;;10.30;;
5900;SDS011;2976;49.764;9.796;2022-09-13T02:39:26;17.63;;;10.63;;
5900;SDS011;2976;49.764;9.796;2022-09-13T02:42:03;10.33;;;9.00;;
5900;SDS011;2976;49.764;9.796;2022-09-13T02:44:42;12.43;;;9.60;;
5900;SDS011;2976;49.764;9.796;2022-09-13T02:53:02;16.40;;;9.53;;
5900;SDS011;2976;49.764;9.796;2022-09-13T02:55:44;15.10;;;9.93;;
5900;SDS011;2976;49.764;9.796;2022-09-13T02:58:27;16.77;;;9.57;;
5900;SDS011;2976;49.764;9.796;2022-09-13T03:01:03;14.80;;;9.13;;
5900;SDS011;2976;49.764;9.796;2022-09-13T03:03:29;24.43;;;12.10;;
5900;SDS011;2976;49.764;9.796;2022-09-13T03:05:54;15.03;;;10.00;;
5900;SDS011;2976;49.764;9.796;2022-09-13T03:08:20;16.00;;;11.53;;
5900;SDS011;2976;49.764;9.796;2022-09-13T03:10:54;12.70;;;9.50;;
5900;SDS011;2976;49.764;9.796;2022-09-13T03:20:12;14.40;;;9.83;;
5900;SDS011;2976;49.764;9.796;2022-09-13T03:22:57;17.43;;;12.00;;
5900;SDS011;2976;49.764;9.796;2022-09-13T03:26:08;14.40;;;10.57;;
5900;SDS011;2976;49.764;9.796;2022-09-13T03:37:59;12.23;;;8.93;;
5900;SDS011;2976;49.764;9.796;2022-09-13T03:45:38;18.70;;;9.40;;
5900;SDS011;2976;49.764;9.796;2022-09-13T03:48:08;13.73;;;8.90;;
5900;SDS011;2976;49.764;9.796;2022-09-13T03:50:36;13.07;;;9.60;;
5900;SDS011;2976;49.764;9.796;2022-09-13T03:53:04;15.77;;;10.60;;
5900;SDS011;2976;49.764;9.796;2022-09-13T03:55:34;12.07;;;8.80;;
5900;SDS011;2976;49.764;9.796;2022-09-13T03:58:04;13.70;;;9.13;;
5900;SDS011;2976;49.764;9.796;2022-09-13T04:00:29;11.40;;;9.20;;
5900;SDS011;2976;49.764;9.796;2022-09-13T04:02:55;14.80;;;10.00;;
5900;SDS011;2976;49.764;9.796;2022-09-13T04:05:21;14.50;;;10.40;;
5900;SDS011;2976;49.764;9.796;2022-09-13T04:07:46;22.17;;;11.07;;
5900;SDS011;2976;49.764;9.796;2022-09-13T04:10:12;19.20;;;11.40;;
5900;SDS011;2976;49.764;9.796;2022-09-13T04:12:38;18.20;;;10.80;;
5900;SDS011;2976;49.764;9.796;2022-09-13T04:15:05;15.30;;;10.50;;
5900;SDS011;2976;49.764;9.796;2022-09-13T04:17:32;22.63;;;13.20;;
5900;SDS011;2976;49.764;9.796;2022-09-13T04:19:57;19.10;;;13.30;;
5900;SDS011;2976;49.764;9.796;2022-09-13T04:22:23;18.50;;;12.53;;
5900;SDS011;2976;49.764;9.796;2022-09-13T04:24:48;22.27;;;13.93;;
5900;SDS011;2976;49.764;9.796;2022-09-13T04:27:14;23.57;;;14.20;;
5900;SDS011;2976;49.764;9.796;2022-09-13T04:29:40;30.53;;;15.77;;
5900;SDS011;2976;49.764;9.796;2022-09-13T04:32:06;25.17;;;13.90;;
5900;SDS011;2976;49.764;9.796;2022-09-13T04:34:31;23.33;;;13.57;;
5900;SDS011;2976;49.764;9.796;2022-09-13T04:36:57;30.50;;;15.63;;
5900;SDS011;2976;49.764;9.796;2022-09-13T04:39:22;23.33;;;14.27;;
5900;SDS011;2976;49.764;9.796;2022-09-13T04:41:48;21.97;;;13.30;;
5900;SDS011;2976;49.764;9.796;2022-09-13T04:44:16;23.03;;;13.97;;
5900;SDS011;2976;49.764;9.796;2022-09-13T04:46:42;22.03;;;14.00;;
5900;SDS011;2976;49.764;9.796;2022-09-13T04:49:10;29.07;;;15.23;;
5900;SDS011;2976;49.764;9.796;2022-09-13T04:51:35;27.63;;;14.87;;
5900;SDS011;2976;49.764;9.796;2022-09-13T04:54:01;19.80;;;11.97;;
5900;SDS011;2976;49.764;9.796;2022-09-13T04:56:27;17.20;;;11.40;;
5900;SDS011;2976;49.764;9.796;2022-09-13T04:58:53;17.50;;;10.00;;
5900;SDS011;2976;49.764;9.796;2022-09-13T05:01:19;15.10;;;10.37;;
5900;SDS011;2976;49.764;9.796;2022-09-13T05:03:46;16.53;;;10.73;;
5900;SDS011;2976;49.764;9.796;2022-09-13T05:06:12;15.40;;;10.63;;
5900;SDS011;2976;49.764;9.796;2022-09-13T05:08:43;14.13;;;9.83;;
5900;SDS011;2976;49.764;9.796;2022-09-13T05:11:13;12.50;;;10.00;;
5900;SDS011;2976;49.764;9.796;2022-09-13T05:13:38;13.07;;;9.43;;
5900;SDS011;2976;49.764;9.796;2022-09-13T05:16:04;15.10;;;8.90;;
5900;SDS011;2976;49.764;9.796;2022-09-13T05:18:32;14.07;;;9.40;;
5900;SDS011;2976;49.764;9.796;2022-09-13T05:20:59;9.50;;;7.73;;
5900;SDS011;2976;49.764;9.796;2022-09-13T05:23:26;11.83;;;8.90;;
5900;SDS011;2976;49.764;9.796;2022-09-13T05:28:27;8.73;;;7.57;;
5900;SDS011;2976;49.764;9.796;2022-09-13T05:30:58;15.77;;;8.90;;
5900;SDS011;2976;49.764;9.796;2022-09-13T05:33:25;12.40;;;8.87;;
5900;SDS011;2976;49.764;9.796;2022-09-13T05:35:52;12.97;;;9.30;;
5900;SDS011;2976;49.764;9.796;2022-09-13T05:38:18;16.63;;;9.20;;
5900;SDS011;2976;49.764;9.796;2022-09-13T05:40:44;11.17;;;9.17;;
5900;SDS011;2976;49.764;9.796;2022-09-13T05:43:10;12.03;;;8.20;;
5900;SDS011;2976;49.764;9.796;2022-09-13T05:45:35;12.33;;;9.40;;
5900;SDS011;2976;49.764;9.796;2022-09-13T05:48:01;16.67;;;9.63;;
5900;SDS011;2976;49.764;9.796;2022-09-13T05:50:27;15.37;;;10.73;;
5900;SDS011;2976;49.764;9.796;2022-09-13T05:52:52;15.70;;;11.07;;
5900;SDS011;2976;49.764;9.796;2022-09-13T05:55:19;15.10;;;10.97;;
5900;SDS011;2976;49.764;9.796;2022-09-13T05:57:46;14.53;;;10.67;;
5900;SDS011;2976;49.764;9.796;2022-09-13T06:00:12;15.77;;;11.20;;
5900;SDS011;2976;49.764;9.796;2022-09-13T06:02:38;18.70;;;13.10;;
5900;SDS011;2976;49.764;9.796;2022-09-13T06:05:05;20.83;;;11.70;;
5900;SDS011;2976;49.764;9.796;2022-09-13T06:07:31;17.50;;;11.63;;
5900;SDS011;2976;49.764;9.796;2022-09-13T06:09:57;14.07;;;10.37;;
5900;SDS011;2976;49.764;9.796;2022-09-13T06:12:22;17.97;;;10.90;;
5900;SDS011;2976;49.764;9.796;2022-09-13T06:14:48;14.00;;;10.70;;
5900;SDS011;2976;49.764;9.796;2022-09-13T06:17:13;9.97;;;8.27;;
5900;SDS011;2976;49.764;9.796;2022-09-13T06:19:39;13.63;;;10.00;;
5900;SDS011;2976;49.764;9.796;2022-09-13T06:22:04;14.47;;;10.13;;
5900;SDS011;2976;49.764;9.796;2022-09-13T06:24:30;14.60;;;9.17;;
5900;SDS011;2976;49.764;9.796;2022-09-13T06:26:56;9.50;;;8.30;;
5900;SDS011;2976;49.764;9.796;2022-09-13T06:29:22;9.40;;;6.77;;
5900;SDS011;2976;49.764;9.796;2022-09-13T06:31:47;13.93;;;8.10;;
5900;SDS011;2976;49.764;9.796;2022-09-13T06:34:13;8.97;;;7.10;;
5900;SDS011;2976;49.764;9.796;2022-09-13T06:36:40;9.13;;;8.03;;
5900;SDS011;2976;49.764;9.796;2022-09-13T06:39:06;14.83;;;9.03;;
5900;SDS011;2976;49.764;9.796;2022-09-13T06:41:32;13.00;;;9.50;;
5900;SDS011;2976;49.764;9.796;2022-09-13T06:43:59;15.17;;;9.93;;
5900;SDS011;2976;49.764;9.796;2022-09-13T06:46:26;12.73;;;9.80;;
5900;SDS011;2976;49.764;9.796;2022-09-13T06:48:53;12.70;;;7.90;;
5900;SDS011;2976;49.764;9.796;2022-09-13T06:51:20;12.70;;;8.77;;
5900;SDS011;2976;49.764;9.796;2022-09-13T06:53:47;12.07;;;8.57;;
5900;SDS011;2976;49.764;9.796;2022-09-13T06:56:18;11.50;;;8.90;;
5900;SDS011;2976;49.764;9.796;2022-09-13T06:58:49;11.47;;;7.90;;
5900;SDS011;2976;49.764;9.796;2022-09-13T07:01:18;12.50;;;9.03;;
5900;SDS011;2976;49.764;9.796;2022-09-13T07:03:49;10.87;;;8.70;;
5900;SDS011;2976;49.764;9.796;2022-09-13T07:08:43;16.10;;;9.60;;
5900;SDS011;2976;49.764;9.796;2022-09-13T07:11:10;13.90;;;9.77;;
5900;SDS011;2976;49.764;9.796;2022-09-13T07:13:37;15.03;;;10.03;;
5900;SDS011;2976;49.764;9.796;2022-09-13T07:16:07;11.17;;;9.30;;
5900;SDS011;2976;49.764;9.796;2022-09-13T07:18:35;12.23;;;8.87;;
5900;SDS011;2976;49.764;9.796;2022-09-13T07:21:02;13.93;;;9.33;;
5900;SDS011;2976;49.764;9.796;2022-09-13T07:23:33;12.93;;;10.90;;
5900;SDS011;2976;49.764;9.796;2022-09-13T07:26:00;11.73;;;9.10;;
5900;SDS011;2976;49.764;9.796;2022-09-13T07:28:42;12.23;;;9.60;;
5900;SDS011;2976;49.764;9.796;2022-09-13T07:31:10;13.27;;;9.37;;
5900;SDS011;2976;49.764;9.796;2022-09-13T07:33:39;11.13;;;9.80;;
5900;SDS011;2976;49.764;9.796;2022-09-13T07:36:06;13.13;;;9.73;;
5900;SDS011;2976;49.764;9.796;2022-09-13T07:38:33;14.40;;;9.60;;
5900;SDS011;2976;49.764;9.796;2022-09-13T07:40:59;12.97;;;9.00;;
5900;SDS011;2976;49.764;9.796;2022-09-13T07:43:25;9.80;;;8.63;;
5900;SDS011;2976;49.764;9.796;2022-09-13T07:46:04;11.03;;;9.07;;
5900;SDS011;2976;49.764;9.796;2022-09-13T07:48:32;12.40;;;9.40;;
5900;SDS011;2976;49.764;9.796;2022-09-13T07:51:06;14.73;;;10.40;;
5900;SDS011;2976;49.764;9.796;2022-09-13T07:53:34;12.37;;;9.73;;
5900;SDS011;2976;49.764;9.796;2022-09-13T07:56:04;11.80;;;9.50;;
5900;SDS011;2976;49.764;9.796;2022-09-13T07:58:33;12.50;;;9.80;;
5900;SDS011;2976;49.764;9.796;2022-09-13T08:01:34;15.47;;;10.97;;
5900;SDS011;2976;49.764;9.796;2022-09-13T08:04:00;13.80;;;10.20;;
5900;SDS011;2976;49.764;9.796;2022-09-13T08:06:28;13.37;;;9.97;;
5900;SDS011;2976;49.764;9.796;2022-09-13T08:08:55;11.63;;;9.90;;
5900;SDS011;2976;49.764;9.796;2022-09-13T08:11:31;14.60;;;10.27;;
5900;SDS011;2976;49.764;9.796;2022-09-13T08:13:59;12.23;;;9.60;;
5900;SDS011;2976;49.764;9.796;2022-09-13T08:16:25;14.17;;;8.90;;
5900;SDS011;2976;49.764;9.796;2022-09-13T08:18:53;9.90;;;7.83;;
5900;SDS011;2976;49.764;9.796;2022-09-13T08:21:20;11.33;;;8.77;;
5900;SDS011;2976;49.764;9.796;2022-09-13T08:23:47;9.70;;;7.40;;
5900;SDS011;2976;49.764;9.796;2022-09-13T08:26:13;10.73;;;9.53;;
5900;SDS011;2976;49.764;9.796;2022-09-13T08:28:39;10.93;;;8.00;;
5900;SDS011;2976;49.764;9.796;2022-09-13T08:31:09;11.53;;;8.90;;
5900;SDS011;2976;49.764;9.796;2022-09-13T08:33:37;11.70;;;9.07;;
5900;SDS011;2976;49.764;9.796;2022-09-13T08:36:03;11.63;;;8.40;;
5900;SDS011;2976;49.764;9.796;2022-09-13T08:38:30;8.10;;;7.27;;
5900;SDS011;2976;49.764;9.796;2022-09-13T08:41:01;9.73;;;7.63;;
5900;SDS011;2976;49.764;9.796;2022-09-13T08:46:04;9.30;;;8.03;;
5900;SDS011;2976;49.764;9.796;2022-09-13T08:48:35;7.97;;;7.17;;
5900;SDS011;2976;49.764;9.796;2022-09-13T08:51:05;7.77;;;7.07;;
5900;SDS011;2976;49.764;9.796;2022-09-13T08:53:38;7.30;;;6.30;;
5900;SDS011;2976;49.764;9.796;2022-09-13T08:56:12;6.20;;;5.60;;
5900;SDS011;2976;49.764;9.796;2022-09-13T08:59:01;5.73;;;5.20;;
5900;SDS011;2976;49.764;9.796;2022-09-13T09:04:09;5.90;;;5.30;;
5900;SDS011;2976;49.764;9.796;2022-09-13T09:06:40;5.30;;;4.80;;
5900;SDS011;2976;49.764;9.796;2022-09-13T09:09:07;4.37;;;4.00;;
5900;SDS011;2976;49.764;9.796;2022-09-13T09:11:41;8.67;;;4.53;;
5900;SDS011;2976;49.764;9.796;2022-09-13T09:14:40;4.40;;;3.30;;
5900;SDS011;2976;49.764;9.796;2022-09-13T09:17:13;3.37;;;3.17;;
5900;SDS011;2976;49.764;9.796;2022-09-13T09:19:47;4.03;;;3.30;;
5900;SDS011;2976;49.764;9.796;2022-09-13T09:22:18;5.07;;;3.87;;
5900;SDS011;2976;49.764;9.796;2022-09-13T09:24:49;4.33;;;2.97;;
5900;SDS011;2976;49.764;9.796;2022-09-13T09:27:19;4.53;;;4.13;;
5900;SDS011;2976;49.764;9.796;2022-09-13T09:29:46;3.77;;;3.43;;
5900;SDS011;2976;49.764;9.796;2022-09-13T09:32:22;4.07;;;3.60;;
5900;SDS011;2976;49.764;9.796;2022-09-13T09:37:45;4.60;;;4.20;;
5900;SDS011;2976;49.764;9.796;2022-09-13T09:40:18;3.20;;;3.00;;
5900;SDS011;2976;49.764;9.796;2022-09-13T09:42:45;10.70;;;3.30;;
5900;SDS011;2976;49.764;9.796;2022-09-13T09:45:23;3.70;;;3.30;;
5900;SDS011;2976;49.764;9.796;2022-09-13T09:48:04;3.30;;;3.00;;
5900;SDS011;2976;49.764;9.796;2022-09-13T09:50:37;6.30;;;3.20;;
5900;SDS011;2976;49.764;9.796;2022-09-13T09:55:44;3.73;;;2.97;;
5900;SDS011;2976;49.764;9.796;2022-09-13T09:58:39;5.03;;;2.80;;
5900;SDS011;2976;49.764;9.796;2022-09-13T10:01:16;6.90;;;3.57;;
5900;SDS011;2976;49.764;9.796;2022-09-13T10:03:51;7.00;;;2.87;;
5900;SDS011;2976;49.764;9.796;2022-09-13T10:06:19;3.40;;;3.17;;
5900;SDS011;2976;49.764;9.796;2022-09-13T10:08:53;2.53;;;2.30;;
5900;SDS011;2976;49.764;9.796;2022-09-13T10:11:20;2.70;;;2.50;;
5900;SDS011;2976;49.764;9.796;2022-09-13T10:13:56;3.57;;;3.27;;
5900;SDS011;2976;49.764;9.796;2022-09-13T10:16:25;3.60;;;3.33;;
5900;SDS011;2976;49.764;9.796;2022-09-13T10:18:53;4.03;;;3.10;;
5900;SDS011;2976;49.764;9.796;2022-09-13T10:21:23;5.20;;;3.00;;
5900;SDS011;2976;49.764;9.796;2022-09-13T10:23:51;5.73;;;3.17;;
5900;SDS011;2976;49.764;9.796;2022-09-13T10:26:20;4.00;;;3.30;;
5900;SDS011;2976;49.764;9.796;2022-09-13T10:31:17;3.30;;;3.10;;
5900;SDS011;2976;49.764;9.796;2022-09-13T10:36:37;4.23;;;3.80;;
5900;SDS011;2976;49.764;9.796;2022-09-13T10:39:16;7.30;;;3.97;;
5900;SDS011;2976;49.764;9.796;2022-09-13T10:41:52;4.00;;;3.30;;
5900;SDS011;2976;49.764;9.796;2022-09-13T10:44:40;5.23;;;4.73;;
5900;SDS011;2976;49.764;9.796;2022-09-13T10:47:13;4.10;;;3.70;;
5900;SDS011;2976;49.764;9.796;2022-09-13T10:49:45;8.87;;;4.80;;
5900;SDS011;2976;49.764;9.796;2022-09-13T10:53:25;5.27;;;4.77;;
5900;SDS011;2976;49.764;9.796;2022-09-13T11:00:17;8.60;;;4.40;;
5900;SDS011;2976;49.764;9.796;2022-09-13T11:02:48;4.23;;;3.93;;
5900;SDS011;2976;49.764;9.796;2022-09-13T11:06:21;6.50;;;4.30;;
5900;SDS011;2976;49.764;9.796;2022-09-13T11:14:20;4.60;;;4.20;;
5900;SDS011;2976;49.764;9.796;2022-09-13T11:17:07;4.40;;;3.97;;
5900;SDS011;2976;49.764;9.796;2022-09-13T11:26:07;6.10;;;4.67;;
5900;SDS011;2976;49.764;9.796;2022-09-13T11:34:23;8.00;;;3.77;;
5900;SDS011;2976;49.764;9.796;2022-09-13T11:40:24;5.07;;;4.57;;
5900;SDS011;2976;49.764;9.796;2022-09-13T11:45:18;10.27;;;4.50;;
5900;SDS011;2976;49.764;9.796;2022-09-13T11:53:45;9.10;;;4.57;;
5900;SDS011;2976;49.764;9.796;2022-09-13T11:56:20;4.63;;;4.20;;
5900;SDS011;2976;49.764;9.796;2022-09-13T12:01:59;7.20;;;4.50;;
5900;SDS011;2976;49.764;9.796;2022-09-13T12:04:31;8.50;;;4.80;;
5900;SDS011;2976;49.764;9.796;2022-09-13T12:07:03;5.70;;;3.97;;
5900;SDS011;2976;49.764;9.796;2022-09-13T12:09:39;4.20;;;3.90;;
5900;SDS011;2976;49.764;9.796;2022-09-13T12:12:17;5.67;;;4.10;;
5900;SDS011;2976;49.764;9.796;2022-09-13T12:14:53;8.07;;;4.50;;
5900;SDS011;2976;49.764;9.796;2022-09-13T12:17:46;4.33;;;3.93;;
5900;SDS011;2976;49.764;9.796;2022-09-13T12:20:30;4.93;;;4.53;;
5900;SDS011;2976;49.764;9.796;2022-09-13T12:22:57;5.60;;;3.50;;
5900;SDS011;2976;49.764;9.796;2022-09-13T12:25:27;9.77;;;3.77;;
5900;SDS011;2976;49.764;9.796;2022-09-13T12:28:17;6.23;;;3.70;;
5900;SDS011;2976;49.764;9.796;2022-09-13T12:30:49;4.10;;;3.27;;
5900;SDS011;2976;49.764;9.796;2022-09-13T12:33:19;6.30;;;3.87;;
5900;SDS011;2976;49.764;9.796;2022-09-13T12:35:59;5.53;;;3.60;;
5900;SDS011;2976;49.764;9.796;2022-09-13T12:44:17;4.43;;;3.87;;
5900;SDS011;2976;49.764;9.796;2022-09-13T12:46:58;3.63;;;3.40;;
5900;SDS011;2976;49.764;9.796;2022-09-13T13:01:25;3.43;;;3.23;;
5900;SDS011;2976;49.764;9.796;2022-09-13T13:06:34;7.93;;;3.87;;
5900;SDS011;2976;49.764;9.796;2022-09-13T13:09:51;2.87;;;2.67;;
5900;SDS011;2976;49.764;9.796;2022-09-13T13:11:59;3.10;;;2.80;;
5900;SDS011;2976;49.764;9.796;2022-09-13T13:20:00;3.17;;;2.87;;
5900;SDS011;2976;49.764;9.796;2022-09-13T13:25:30;3.70;;;3.33;;
5900;SDS011;2976;49.764;9.796;2022-09-13T13:31:06;3.70;;;3.40;;
5900;SDS011;2976;49.764;9.796;2022-09-13T13:33:48;3.60;;;2.97;;
5900;SDS011;2976;49.764;9.796;2022-09-13T13:36:20;4.80;;;3.43;;
5900;SDS011;2976;49.764;9.796;2022-09-13T13:39:06;6.73;;;3.10;;
5900;SDS011;2976;49.764;9.796;2022-09-13T13:41:55;2.97;;;2.67;;
5900;SDS011;2976;49.764;9.796;2022-09-13T13:46:47;5.73;;;3.27;;
5900;SDS011;2976;49.764;9.796;2022-09-13T13:59:55;2.33;;;1.90;;
5900;SDS011;2976;49.764;9.796;2022-09-13T14:02:39;2.00;;;1.90;;
5900;SDS011;2976;49.764;9.796;2022-09-13T14:10:55;2.00;;;1.90;;
5900;SDS011;2976;49.764;9.796;2022-09-13T14:14:05;5.57;;;2.23;;
5900;SDS011;2976;49.764;9.796;2022-09-13T14:17:36;2.37;;;2.10;;
5900;SDS011;2976;49.764;9.796;2022-09-13T14:20:23;5.03;;;1.70;;
5900;SDS011;2976;49.764;9.796;2022-09-13T14:22:50;2.00;;;1.90;;
5900;SDS011;2976;49.764;9.796;2022-09-13T14:27:44;2.43;;;2.30;;
5900;SDS011;2976;49.764;9.796;2022-09-13T14:32:51;1.80;;;1.70;;
5900;SDS011;2976;49.764;9.796;2022-09-13T14:35:22;2.60;;;1.77;;
5900;SDS011;2976;49.764;9.796;2022-09-13T14:37:51;2.00;;;1.83;;
5900;SDS011;2976;49.764;9.796;2022-09-13T14:40:19;2.33;;;1.60;;
5900;SDS011;2976;49.764;9.796;2022-09-13T14:42:48;1.80;;;1.70;;
5900;SDS011;2976;49.764;9.796;2022-09-13T14:45:16;4.70;;;1.73;;
5900;SDS011;2976;49.764;9.796;2022-09-13T14:47:56;2.60;;;1.50;;
5900;SDS011;2976;49.764;9.796;2022-09-13T14:50:31;1.83;;;1.30;;
5900;SDS011;2976;49.764;9.796;2022-09-13T14:53:05;2.00;;;1.90;;
5900;SDS011;2976;49.764;9.796;2022-09-13T14:55:35;1.80;;;1.70;;
5900;SDS011;2976;49.764;9.796;2022-09-13T14:58:06;2.20;;;1.40;;
5900;SDS011;2976;49.764;9.796;2022-09-13T15:00:49;1.97;;;1.60;;
5900;SDS011;2976;49.764;9.796;2022-09-13T15:03:19;1.63;;;1.53;;
5900;SDS011;2976;49.764;9.796;2022-09-13T15:05:55;2.27;;;2.10;;
5900;SDS011;2976;49.764;9.796;2022-09-13T15:08:26;1.83;;;1.73;;
5900;SDS011;2976;49.764;9.796;2022-09-13T15:11:06;2.20;;;1.87;;
5900;SDS011;2976;49.764;9.796;2022-09-13T15:13:59;1.93;;;1.80;;
5900;SDS011;2976;49.764;9.796;2022-09-13T15:16:29;10.63;;;1.80;;
5900;SDS011;2976;49.764;9.796;2022-09-13T15:21:40;2.10;;;1.90;;
5900;SDS011;2976;49.764;9.796;2022-09-13T15:24:13;3.50;;;1.70;;
5900;SDS011;2976;49.764;9.796;2022-09-13T15:26:45;4.53;;;1.93;;
5900;SDS011;2976;49.764;9.796;2022-09-13T15:29:14;4.13;;;1.50;;
5900;SDS011;2976;49.764;9.796;2022-09-13T15:31:43;1.93;;;1.83;;
5900;SDS011;2976;49.764;9.796;2022-09-13T15:36:44;1.77;;;1.67;;
5900;SDS011;2976;49.764;9.796;2022-09-13T15:42:17;2.40;;;2.10;;
5900;SDS011;2976;49.764;9.796;2022-09-13T15:44:35;1.93;;;1.83;;
5900;SDS011;2976;49.764;9.796;2022-09-13T15:47:01;2.30;;;2.13;;
5900;SDS011;2976;49.764;9.796;2022-09-13T15:49:31;2.03;;;1.93;;
5900;SDS011;2976;49.764;9.796;2022-09-13T15:51:58;2.00;;;1.90;;
5900;SDS011;2976;49.764;9.796;2022-09-13T15:54:33;1.90;;;1.70;;
5900;SDS011;2976;49.764;9.796;2022-09-13T15:57:01;2.60;;;2.40;;
5900;SDS011;2976;49.764;9.796;2022-09-13T15:59:31;5.60;;;2.10;;
5900;SDS011;2976;49.764;9.796;2022-09-13T16:01:56;2.97;;;1.83;;
5900;SDS011;2976;49.764;9.796;2022-09-13T16:04:23;2.13;;;2.00;;
5900;SDS011;2976;49.764;9.796;2022-09-13T16:06:49;2.60;;;1.80;;
5900;SDS011;2976;49.764;9.796;2022-09-13T16:09:16;1.60;;;1.50;;
5900;SDS011;2976;49.764;9.796;2022-09-13T16:11:42;2.10;;;1.83;;
5900;SDS011;2976;49.764;9.796;2022-09-13T16:14:08;2.50;;;2.00;;
5900;SDS011;2976;49.764;9.796;2022-09-13T16:16:34;5.53;;;2.20;;
5900;SDS011;2976;49.764;9.796;2022-09-13T16:18:59;2.83;;;2.47;;
5900;SDS011;2976;49.764;9.796;2022-09-13T16:21:25;2.30;;;2.20;;
5900;SDS011;2976;49.764;9.796;2022-09-13T16:23:50;2.50;;;2.10;;
5900;SDS011;2976;49.764;9.796;2022-09-13T16:26:16;4.30;;;2.33;;
5900;SDS011;2976;49.764;9.796;2022-09-13T16:28:41;2.23;;;2.03;;
5900;SDS011;2976;49.764;9.796;2022-09-13T16:31:07;2.13;;;2.03;;
5900;SDS011;2976;49.764;9.796;2022-09-13T16:33:33;2.33;;;1.93;;
5900;SDS011;2976;49.764;9.796;2022-09-13T16:35:58;2.00;;;1.90;;
5900;SDS011;2976;49.764;9.796;2022-09-13T16:38:24;2.30;;;2.10;;
5900;SDS011;2976;49.764;9.796;2022-09-13T16:40:49;2.30;;;2.07;;
5900;SDS011;2976;49.764;9.796;2022-09-13T16:43:16;8.20;;;2.27;;
5900;SDS011;2976;49.764;9.796;2022-09-13T16:45:42;2.30;;;2.20;;
5900;SDS011;2976;49.764;9.796;2022-09-13T16:48:09;2.57;;;2.37;;
5900;SDS011;2976;49.764;9.796;2022-09-13T16:50:38;2.57;;;2.37;;
5900;SDS011;2976;49.764;9.796;2022-09-13T16:53:05;2.97;;;2.13;;
5900;SDS011;2976;49.764;9.796;2022-09-13T16:55:30;9.43;;;2.30;;
5900;SDS011;2976;49.764;9.796;2022-09-13T16:57:56;2.10;;;1.93;;
5900;SDS011;2976;49.764;9.796;2022-09-13T17:00:22;3.37;;;1.90;;
5900;SDS011;2976;49.764;9.796;2022-09-13T17:02:52;2.83;;;2.10;;
5900;SDS011;2976;49.764;9.796;2022-09-13T17:05:21;2.33;;;2.23;;
5900;SDS011;2976;49.764;9.796;2022-09-13T17:07:47;2.20;;;2.10;;
5900;SDS011;2976;49.764;9.796;2022-09-13T17:10:15;2.07;;;1.97;;
5900;SDS011;2976;49.764;9.796;2022-09-13T17:12:41;2.60;;;2.00;;
5900;SDS011;2976;49.764;9.796;2022-09-13T17:15:07;2.67;;;2.47;;
5900;SDS011;2976;49.764;9.796;2022-09-13T17:17:33;4.40;;;2.17;;
5900;SDS011;2976;49.764;9.796;2022-09-13T17:20:01;3.20;;;2.27;;
5900;SDS011;2976;49.764;9.796;2022-09-13T17:22:31;2.60;;;2.40;;
5900;SDS011;2976;49.764;9.796;2022-09-13T17:24:58;2.13;;;2.03;;
5900;SDS011;2976;49.764;9.796;2022-09-13T17:27:25;2.03;;;1.93;;
5900;SDS011;2976;49.764;9.796;2022-09-13T17:29:51;2.90;;;2.40;;
5900;SDS011;2976;49.764;9.796;2022-09-13T17:32:17;3.50;;;2.43;;
5900;SDS011;2976;49.764;9.796;2022-09-13T17:34:43;2.57;;;2.37;;
5900;SDS011;2976;49.764;9.796;2022-09-13T17:37:08;3.90;;;3.20;;
5900;SDS011;2976;49.764;9.796;2022-09-13T17:39:34;3.93;;;2.50;;
5900;SDS011;2976;49.764;9.796;2022-09-13T17:42:00;6.00;;;2.47;;
5900;SDS011;2976;49.764;9.796;2022-09-13T17:44:26;3.90;;;2.77;;
5900;SDS011;2976;49.764;9.796;2022-09-13T17:46:51;3.67;;;2.53;;
5900;SDS011;2976;49.764;9.796;2022-09-13T17:49:17;4.00;;;2.90;;
5900;SDS011;2976;49.764;9.796;2022-09-13T17:51:42;3.50;;;2.50;;
5900;SDS011;2976;49.764;9.796;2022-09-13T17:54:09;3.17;;;2.87;;
5900;SDS011;2976;49.764;9.796;2022-09-13T17:56:36;3.30;;;3.10;;
5900;SDS011;2976;49.764;9.796;2022-09-13T17:59:05;3.17;;;2.67;;
5900;SDS011;2976;49.764;9.796;2022-09-13T18:01:33;4.30;;;3.63;;
5900;SDS011;2976;49.764;9.796;2022-09-13T18:03:59;4.07;;;3.20;;
5900;SDS011;2976;49.764;9.796;2022-09-13T18:06:24;3.60;;;2.70;;
5900;SDS011;2976;49.764;9.796;2022-09-13T18:08:51;4.43;;;3.37;;
5900;SDS011;2976;49.764;9.796;2022-09-13T18:11:17;3.70;;;3.37;;
5900;SDS011;2976;49.764;9.796;2022-09-13T18:13:43;3.10;;;2.90;;
5900;SDS011;2976;49.764;9.796;2022-09-13T18:16:11;4.20;;;3.27;;
5900;SDS011;2976;49.764;9.796;2022-09-13T18:18:38;5.23;;;3.47;;
5900;SDS011;2976;49.764;9.796;2022-09-13T18:21:04;3.30;;;2.63;;
5900;SDS011;2976;49.764;9.796;2022-09-13T18:23:31;2.83;;;2.60;;